Terminal Aerodrome Forecast
Issued by NWS North Platte, NE

Home | Current Version | Previous Version | Graphics & Text | Print | Product List | Glossary On
Versions: 1 2 3 4 5 6 7 8 9 10 11 12 13 14 15
000
FTUS43 KLBF 312320
TAFVTN
TAF
KVTN 312320Z 0100/0124 35008KT P6SM SCT070
     FM010200 VRB05KT P6SM SKC
     FM010900 12005KT P6SM VCTS SCT050CB BKN120
     FM011500 20009KT P6SM SCT250=

USA.gov is the U.S. government's official web portal to all federal, state and local government web resources and services.